Time;durP1;ratioP1;P1;durP2;ratioP2;P2;SDS_P1;SDS_P2;PMS_P1;PMS_P2;Temp;Humidity;BMP_temperature;BMP_pressure;BME280_temperature;BME280_humidity;BME280_pressure;Samples;Min_cycle;Max_cycle;Signal;HPM_P1;HPM_P2
2023/05/26 00:01:16;;;;;;;8.97;3.80;;;;;;;;;;5074707;28;20550;-60
2023/05/26 00:03:44;;;;;;;11.10;4.70;;;;;;;;;;5074512;28;20449;-60
2023/05/26 00:06:11;;;;;;;11.87;4.00;;;;;;;;;;5074657;28;20495;-60
2023/05/26 00:08:38;;;;;;;8.30;4.10;;;;;;;;;;5074539;28;20449;-60
2023/05/26 00:11:07;;;;;;;10.60;4.50;;;;;;;;;;5074481;28;20519;-60
2023/05/26 00:13:34;;;;;;;9.73;4.77;;;;;;;;;;5073993;28;20488;-60
2023/05/26 00:16:01;;;;;;;9.70;4.73;;;;;;;;;;5074529;28;20452;-60
2023/05/26 00:18:28;;;;;;;8.70;5.30;;;;;;;;;;5074285;28;20948;-60
2023/05/26 00:20:55;;;;;;;6.70;3.53;;;;;;;;;;5074155;28;20536;-60
2023/05/26 00:23:22;;;;;;;11.70;4.83;;;;;;;;;;5074273;28;20539;-60
2023/05/26 00:25:50;;;;;;;11.93;4.47;;;;;;;;;;5074230;28;20505;-60
2023/05/26 00:28:18;;;;;;;9.93;4.83;;;;;;;;;;5074335;28;20842;-60
2023/05/26 00:30:45;;;;;;;8.50;4.20;;;;;;;;;;5074319;28;20448;-60
2023/05/26 00:33:12;;;;;;;10.00;4.33;;;;;;;;;;5074184;28;20449;-60
2023/05/26 00:35:40;;;;;;;11.63;5.90;;;;;;;;;;5074585;28;20453;-60
2023/05/26 00:38:07;;;;;;;8.00;4.10;;;;;;;;;;5074656;28;20484;-60
2023/05/26 00:40:35;;;;;;;16.83;5.00;;;;;;;;;;5074509;28;20479;-60
2023/05/26 00:43:02;;;;;;;14.70;5.40;;;;;;;;;;5074827;28;20947;-61
2023/05/26 00:45:31;;;;;;;7.57;4.77;;;;;;;;;;5074773;28;20481;-60
2023/05/26 00:47:58;;;;;;;7.87;3.97;;;;;;;;;;5073884;28;20528;-60
2023/05/26 00:50:26;;;;;;;12.47;4.30;;;;;;;;;;5073913;28;20452;-60
2023/05/26 00:52:53;;;;;;;7.17;3.80;;;;;;;;;;5073723;28;20939;-60
2023/05/26 00:55:21;;;;;;;10.20;4.33;;;;;;;;;;5038303;28;1037432;-60
2023/05/26 00:57:48;;;;;;;12.63;4.67;;;;;;;;;;5074866;28;20198;-60
2023/05/26 01:00:15;;;;;;;11.17;4.70;;;;;;;;;;5074880;28;20478;-60
2023/05/26 01:02:45;;;;;;;10.10;4.60;;;;;;;;;;5074702;28;20476;-60
2023/05/26 01:05:15;;;;;;;13.10;4.60;;;;;;;;;;5074633;28;20451;-60
2023/05/26 01:07:42;;;;;;;12.23;4.27;;;;;;;;;;5074461;28;20535;-60
2023/05/26 01:10:10;;;;;;;9.43;5.50;;;;;;;;;;5074958;28;20455;-60
2023/05/26 01:12:40;;;;;;;10.63;5.70;;;;;;;;;;5074380;28;20427;-60
2023/05/26 01:15:11;;;;;;;12.13;5.07;;;;;;;;;;5074406;28;20456;-60
2023/05/26 01:17:44;;;;;;;14.97;4.53;;;;;;;;;;5074262;28;20962;-60
2023/05/26 01:20:19;;;;;;;10.37;4.10;;;;;;;;;;5074068;28;20515;-60
2023/05/26 01:22:53;;;;;;;7.23;4.20;;;;;;;;;;5074146;28;21028;-60
2023/05/26 01:25:28;;;;;;;15.50;4.73;;;;;;;;;;5073587;28;20451;-60
2023/05/26 01:28:06;;;;;;;11.00;4.77;;;;;;;;;;5074115;28;20447;-60
2023/05/26 01:30:35;;;;;;;11.33;5.47;;;;;;;;;;5074305;28;21000;-60
2023/05/26 01:33:03;;;;;;;8.60;3.77;;;;;;;;;;5074457;28;20456;-60
2023/05/26 01:35:30;;;;;;;11.17;5.27;;;;;;;;;;5074776;28;20483;-60
2023/05/26 01:37:59;;;;;;;10.47;4.67;;;;;;;;;;5074705;28;20448;-60
2023/05/26 01:40:27;;;;;;;17.80;4.70;;;;;;;;;;5074198;28;20479;-60
2023/05/26 01:42:57;;;;;;;11.00;4.73;;;;;;;;;;5074405;28;20475;-60
2023/05/26 01:45:28;;;;;;;8.07;4.70;;;;;;;;;;5074513;28;20447;-60
2023/05/26 01:47:57;;;;;;;7.77;4.20;;;;;;;;;;5074390;28;20456;-60
2023/05/26 01:50:25;;;;;;;10.13;4.30;;;;;;;;;;5074219;28;20457;-60
2023/05/26 01:52:53;;;;;;;11.60;5.03;;;;;;;;;;5074017;28;20452;-60
2023/05/26 01:55:21;;;;;;;14.83;4.97;;;;;;;;;;5073850;28;20490;-61
2023/05/26 01:57:50;;;;;;;13.63;4.50;;;;;;;;;;5074155;28;20469;-60
2023/05/26 02:00:24;;;;;;;11.60;3.93;;;;;;;;;;5073857;28;20479;-60
2023/05/26 02:02:53;;;;;;;10.10;4.50;;;;;;;;;;5074465;28;20442;-60
2023/05/26 02:05:20;;;;;;;13.43;4.37;;;;;;;;;;5073945;28;20445;-60
2023/05/26 02:07:47;;;;;;;11.43;4.27;;;;;;;;;;5073840;28;20471;-60
2023/05/26 02:10:15;;;;;;;8.70;4.97;;;;;;;;;;5073904;28;20487;-60
2023/05/26 02:12:42;;;;;;;10.57;4.27;;;;;;;;;;5074083;28;20450;-60
2023/05/26 02:15:10;;;;;;;8.17;4.13;;;;;;;;;;5073872;28;20460;-61
2023/05/26 02:17:37;;;;;;;12.27;4.17;;;;;;;;;;5074143;28;20482;-60
2023/05/26 02:20:09;;;;;;;10.40;4.30;;;;;;;;;;5073481;28;20448;-60
2023/05/26 02:22:36;;;;;;;11.40;4.17;;;;;;;;;;5073754;28;20452;-60
2023/05/26 02:25:03;;;;;;;8.57;4.40;;;;;;;;;;5074080;28;20531;-61
2023/05/26 02:27:31;;;;;;;12.97;5.23;;;;;;;;;;5073767;28;20463;-60
2023/05/26 02:30:00;;;;;;;9.40;4.87;;;;;;;;;;5073983;28;20452;-60
2023/05/26 02:32:29;;;;;;;6.33;4.30;;;;;;;;;;5073671;28;20464;-60
2023/05/26 02:34:56;;;;;;;8.83;4.43;;;;;;;;;;5073602;28;20547;-60
2023/05/26 02:37:26;;;;;;;7.10;4.23;;;;;;;;;;5073456;28;20447;-60
2023/05/26 02:39:54;;;;;;;7.63;4.70;;;;;;;;;;5073875;28;20456;-60
2023/05/26 02:42:21;;;;;;;9.97;5.00;;;;;;;;;;5073584;28;20486;-60
2023/05/26 02:44:48;;;;;;;9.27;4.93;;;;;;;;;;5073648;28;20854;-60
2023/05/26 02:47:16;;;;;;;8.50;4.33;;;;;;;;;;5073507;28;20452;-60
2023/05/26 02:49:43;;;;;;;10.37;5.20;;;;;;;;;;5073393;28;20479;-60
2023/05/26 02:52:10;;;;;;;8.70;4.10;;;;;;;;;;5073452;28;20447;-60
2023/05/26 02:54:39;;;;;;;11.23;5.30;;;;;;;;;;5073306;28;20871;-60
2023/05/26 02:57:07;;;;;;;7.17;4.33;;;;;;;;;;5073604;28;20530;-59
2023/05/26 02:59:34;;;;;;;11.10;5.10;;;;;;;;;;5073354;28;20482;-59
2023/05/26 03:02:02;;;;;;;14.33;4.90;;;;;;;;;;5073306;28;20487;-59
2023/05/26 03:04:29;;;;;;;8.67;4.83;;;;;;;;;;5072776;28;20484;-59
2023/05/26 03:06:56;;;;;;;5.63;3.67;;;;;;;;;;5072894;28;20458;-59
2023/05/26 03:09:23;;;;;;;7.77;4.53;;;;;;;;;;5072553;28;21004;-59
2023/05/26 03:11:51;;;;;;;10.87;4.43;;;;;;;;;;5073262;28;20489;-59
2023/05/26 03:14:20;;;;;;;9.43;4.33;;;;;;;;;;5073213;28;20452;-59
2023/05/26 03:16:47;;;;;;;10.50;5.10;;;;;;;;;;5073125;28;20448;-60
2023/05/26 03:19:14;;;;;;;9.70;4.60;;;;;;;;;;5073467;28;20807;-60
2023/05/26 03:21:42;;;;;;;16.20;5.27;;;;;;;;;;5073001;28;20914;-60
2023/05/26 03:24:09;;;;;;;8.00;4.70;;;;;;;;;;5072739;28;20504;-60
2023/05/26 03:26:36;;;;;;;8.70;5.13;;;;;;;;;;5072618;28;20462;-59
2023/05/26 03:29:04;;;;;;;9.77;4.67;;;;;;;;;;5072465;28;20455;-59
2023/05/26 03:31:31;;;;;;;12.03;4.90;;;;;;;;;;5072940;28;20483;-59
2023/05/26 03:33:58;;;;;;;13.27;4.90;;;;;;;;;;5072667;28;20487;-59
2023/05/26 03:36:26;;;;;;;16.17;4.50;;;;;;;;;;5072500;28;20452;-59
2023/05/26 03:38:53;;;;;;;10.33;5.90;;;;;;;;;;5072270;28;20942;-60
2023/05/26 03:41:20;;;;;;;12.47;5.67;;;;;;;;;;5072169;28;21001;-60
2023/05/26 03:43:47;;;;;;;11.50;5.80;;;;;;;;;;5072362;28;20482;-59
2023/05/26 03:46:16;;;;;;;11.20;5.33;;;;;;;;;;5072501;28;20422;-61
2023/05/26 03:48:43;;;;;;;8.77;4.67;;;;;;;;;;5075300;28;20956;-60
2023/05/26 03:51:10;;;;;;;9.13;5.00;;;;;;;;;;5076004;28;20430;-60
2023/05/26 03:53:37;;;;;;;15.03;5.43;;;;;;;;;;5075577;28;20567;-60
2023/05/26 03:56:05;;;;;;;9.50;4.43;;;;;;;;;;5076276;28;20422;-60
2023/05/26 03:58:32;;;;;;;9.20;4.40;;;;;;;;;;5075515;28;20452;-60
2023/05/26 04:00:59;;;;;;;11.73;4.97;;;;;;;;;;5075990;28;20507;-60
2023/05/26 04:03:28;;;;;;;13.23;5.73;;;;;;;;;;5075837;28;20451;-60
2023/05/26 04:05:57;;;;;;;14.67;6.70;;;;;;;;;;5075822;28;20866;-60
2023/05/26 04:08:23;;;;;;;9.70;5.63;;;;;;;;;;5075793;28;20451;-60
2023/05/26 04:10:50;;;;;;;9.30;5.03;;;;;;;;;;5075568;28;20497;-60
2023/05/26 04:13:18;;;;;;;15.80;5.80;;;;;;;;;;5075776;28;20447;-60
2023/05/26 04:15:45;;;;;;;11.57;4.70;;;;;;;;;;5075592;28;20453;-60
2023/05/26 04:18:12;;;;;;;18.33;6.60;;;;;;;;;;5075523;28;20450;-60
2023/05/26 04:20:40;;;;;;;12.10;5.23;;;;;;;;;;5075460;28;20461;-60
2023/05/26 04:23:07;;;;;;;14.37;5.50;;;;;;;;;;5075346;28;20935;-59
2023/05/26 04:25:34;;;;;;;13.17;5.73;;;;;;;;;;5075209;28;20427;-60
2023/05/26 04:28:02;;;;;;;8.17;4.87;;;;;;;;;;5075420;28;20473;-60
2023/05/26 04:30:29;;;;;;;7.67;4.27;;;;;;;;;;5075194;28;20457;-61
2023/05/26 04:32:57;;;;;;;13.93;5.53;;;;;;;;;;5075115;28;20434;-59
2023/05/26 04:35:24;;;;;;;16.43;6.60;;;;;;;;;;5075150;28;20448;-60
2023/05/26 04:37:53;;;;;;;10.83;5.37;;;;;;;;;;5075071;28;20430;-60
2023/05/26 04:40:20;;;;;;;14.43;4.70;;;;;;;;;;5075012;28;20480;-59
2023/05/26 04:42:48;;;;;;;16.60;5.40;;;;;;;;;;5074888;28;21059;-59
2023/05/26 04:45:15;;;;;;;13.40;4.40;;;;;;;;;;5075072;28;20534;-60
2023/05/26 04:47:42;;;;;;;13.70;5.10;;;;;;;;;;5074992;28;20447;-60
2023/05/26 04:50:12;;;;;;;9.40;4.50;;;;;;;;;;5074874;28;20447;-60
2023/05/26 04:52:39;;;;;;;13.40;5.47;;;;;;;;;;5074760;28;20444;-60
2023/05/26 04:55:08;;;;;;;10.77;5.50;;;;;;;;;;5074579;28;20482;-61
2023/05/26 04:57:35;;;;;;;14.77;4.80;;;;;;;;;;5074917;28;20451;-60
2023/05/26 05:00:05;;;;;;;10.40;4.80;;;;;;;;;;5073592;28;20444;-60
2023/05/26 05:02:32;;;;;;;16.67;5.57;;;;;;;;;;5074436;28;20574;-60
2023/05/26 05:04:59;;;;;;;13.10;4.90;;;;;;;;;;5074763;28;20463;-60
2023/05/26 05:07:26;;;;;;;16.80;6.07;;;;;;;;;;5074506;28;20456;-60
2023/05/26 05:09:53;;;;;;;12.20;6.07;;;;;;;;;;5074756;28;20475;-59
2023/05/26 05:12:22;;;;;;;27.30;5.30;;;;;;;;;;5074703;28;20529;-59
2023/05/26 05:14:49;;;;;;;13.80;5.10;;;;;;;;;;5074649;28;20448;-59
2023/05/26 05:17:16;;;;;;;12.43;5.47;;;;;;;;;;5074280;28;20423;-59
2023/05/26 05:19:43;;;;;;;11.67;4.90;;;;;;;;;;5074001;28;20443;-60
2023/05/26 05:22:11;;;;;;;14.67;5.23;;;;;;;;;;5074301;28;20490;-60
2023/05/26 05:24:38;;;;;;;14.33;5.20;;;;;;;;;;5074318;28;20450;-60
2023/05/26 05:27:05;;;;;;;15.73;6.37;;;;;;;;;;5074119;28;20456;-59
2023/05/26 05:29:34;;;;;;;15.27;4.70;;;;;;;;;;5073902;28;20989;-60
2023/05/26 05:32:01;;;;;;;17.43;5.20;;;;;;;;;;5074029;28;20542;-60
2023/05/26 05:34:28;;;;;;;21.00;5.00;;;;;;;;;;5074066;28;20550;-60
2023/05/26 05:36:55;;;;;;;19.30;4.90;;;;;;;;;;5074276;28;20451;-60
2023/05/26 05:39:22;;;;;;;23.77;4.97;;;;;;;;;;5073997;28;20862;-60
2023/05/26 05:41:49;;;;;;;18.20;5.63;;;;;;;;;;5073906;28;20468;-59
2023/05/26 05:44:16;;;;;;;24.77;7.17;;;;;;;;;;5073764;28;20486;-60
2023/05/26 05:46:44;;;;;;;16.10;5.13;;;;;;;;;;5073675;28;20487;-60
2023/05/26 05:49:11;;;;;;;16.07;5.10;;;;;;;;;;5073682;28;20483;-60
2023/05/26 05:51:38;;;;;;;16.73;4.50;;;;;;;;;;5073541;28;20453;-59
2023/05/26 05:54:05;;;;;;;38.00;6.50;;;;;;;;;;5073365;28;20480;-59
2023/05/26 05:56:32;;;;;;;18.43;5.70;;;;;;;;;;5073584;28;21010;-60
2023/05/26 05:58:59;;;;;;;14.93;5.40;;;;;;;;;;5073338;28;20535;-60
2023/05/26 06:01:26;;;;;;;12.77;4.77;;;;;;;;;;5073114;28;20446;-59
2023/05/26 06:03:55;;;;;;;16.73;6.53;;;;;;;;;;5073295;28;20459;-59
2023/05/26 06:06:21;;;;;;;11.27;4.57;;;;;;;;;;5073263;28;20545;-59
2023/05/26 06:08:48;;;;;;;10.37;3.63;;;;;;;;;;5073134;28;20448;-59
2023/05/26 06:11:15;;;;;;;23.23;5.63;;;;;;;;;;5072839;28;20453;-59
2023/05/26 06:13:42;;;;;;;16.23;5.40;;;;;;;;;;5073058;28;20454;-60
2023/05/26 06:16:09;;;;;;;19.67;4.77;;;;;;;;;;5073303;28;20544;-59
2023/05/26 06:18:36;;;;;;;13.00;4.00;;;;;;;;;;5073121;28;20507;-59
2023/05/26 06:21:04;;;;;;;11.20;4.23;;;;;;;;;;5073227;28;20454;-59
2023/05/26 06:23:31;;;;;;;19.93;10.93;;;;;;;;;;5073086;28;20492;-59
2023/05/26 06:25:58;;;;;;;13.47;4.33;;;;;;;;;;5072948;28;20456;-59
2023/05/26 06:28:25;;;;;;;11.90;4.43;;;;;;;;;;5072803;28;20862;-59
2023/05/26 06:30:52;;;;;;;15.23;4.30;;;;;;;;;;5073133;28;20449;-59
2023/05/26 06:33:19;;;;;;;10.67;3.90;;;;;;;;;;5073124;28;20453;-59
2023/05/26 06:35:46;;;;;;;12.17;4.20;;;;;;;;;;5072971;28;20552;-59
2023/05/26 06:38:14;;;;;;;11.00;4.10;;;;;;;;;;5072902;28;20557;-59
2023/05/26 06:40:41;;;;;;;13.73;3.60;;;;;;;;;;5072883;28;20476;-60
2023/05/26 06:43:08;;;;;;;14.90;4.57;;;;;;;;;;5072623;28;20490;-59
2023/05/26 06:45:35;;;;;;;13.87;5.00;;;;;;;;;;5072956;28;20540;-59
2023/05/26 06:48:02;;;;;;;14.33;4.70;;;;;;;;;;5072938;28;20502;-59
2023/05/26 06:50:29;;;;;;;11.47;3.87;;;;;;;;;;5072869;28;20506;-59
2023/05/26 06:52:56;;;;;;;16.23;4.70;;;;;;;;;;5072715;28;20475;-59
2023/05/26 06:55:24;;;;;;;15.53;4.00;;;;;;;;;;5072345;28;20987;-59
2023/05/26 06:57:51;;;;;;;8.57;4.27;;;;;;;;;;5072552;28;20471;-59
2023/05/26 07:00:18;;;;;;;10.67;4.80;;;;;;;;;;5072682;28;20514;-59
2023/05/26 07:02:45;;;;;;;12.30;4.00;;;;;;;;;;5072478;28;20486;-59
2023/05/26 07:05:12;;;;;;;18.87;3.97;;;;;;;;;;5072678;28;20962;-59
2023/05/26 07:07:39;;;;;;;14.67;4.30;;;;;;;;;;5072571;28;20558;-59
2023/05/26 07:10:06;;;;;;;15.70;4.67;;;;;;;;;;5072541;28;20454;-59
2023/05/26 07:12:34;;;;;;;11.10;4.50;;;;;;;;;;5072631;28;20459;-60
2023/05/26 07:15:01;;;;;;;14.30;4.30;;;;;;;;;;5072425;28;20449;-59
2023/05/26 07:17:28;;;;;;;8.80;3.87;;;;;;;;;;5072282;28;20484;-59
2023/05/26 07:19:55;;;;;;;7.90;3.80;;;;;;;;;;5072099;28;20968;-59
2023/05/26 07:22:22;;;;;;;12.87;4.37;;;;;;;;;;5073468;28;20848;-59
2023/05/26 07:24:49;;;;;;;14.63;4.47;;;;;;;;;;5076278;28;20452;-59
2023/05/26 07:27:16;;;;;;;9.80;3.53;;;;;;;;;;5076369;28;20454;-59
2023/05/26 07:29:44;;;;;;;15.53;5.00;;;;;;;;;;5076335;28;20488;-59
2023/05/26 07:32:11;;;;;;;9.63;3.57;;;;;;;;;;5076241;28;20871;-59
2023/05/26 07:34:38;;;;;;;11.53;4.37;;;;;;;;;;5076083;28;20485;-61
2023/05/26 07:37:05;;;;;;;13.50;4.43;;;;;;;;;;5075983;28;20455;-58
2023/05/26 07:39:32;;;;;;;14.50;4.40;;;;;;;;;;5076116;28;20449;-58
2023/05/26 07:41:58;;;;;;;14.40;4.30;;;;;;;;;;5075954;28;20484;-58
2023/05/26 07:44:25;;;;;;;11.23;4.40;;;;;;;;;;5075858;28;20953;-59
2023/05/26 07:46:53;;;;;;;15.73;4.53;;;;;;;;;;5075855;28;20534;-59
2023/05/26 07:49:20;;;;;;;9.93;3.50;;;;;;;;;;5075840;28;20457;-59
2023/05/26 07:51:47;;;;;;;13.93;4.07;;;;;;;;;;5075640;28;20482;-59
2023/05/26 07:54:14;;;;;;;10.27;3.80;;;;;;;;;;5075712;28;20509;-59
2023/05/26 07:56:41;;;;;;;11.43;3.87;;;;;;;;;;5075815;28;20887;-59
2023/05/26 07:59:08;;;;;;;10.03;3.80;;;;;;;;;;5075798;28;20469;-59
2023/05/26 08:01:36;;;;;;;7.10;3.43;;;;;;;;;;5075477;28;21030;-59
2023/05/26 08:04:04;;;;;;;15.67;4.00;;;;;;;;;;5075517;28;20512;-59
2023/05/26 08:06:31;;;;;;;15.13;4.00;;;;;;;;;;5075305;28;20726;-59
2023/05/26 08:08:58;;;;;;;13.23;4.40;;;;;;;;;;5075556;28;20467;-59
2023/05/26 08:11:25;;;;;;;18.23;3.57;;;;;;;;;;5075553;28;20514;-59
2023/05/26 08:13:52;;;;;;;13.53;4.53;;;;;;;;;;5075448;28;20472;-59
2023/05/26 08:16:19;;;;;;;12.27;3.47;;;;;;;;;;5075404;28;20449;-58
2023/05/26 08:18:46;;;;;;;13.33;3.93;;;;;;;;;;5075156;28;20453;-60
2023/05/26 08:21:15;;;;;;;15.13;4.93;;;;;;;;;;5075183;28;20545;-60
2023/05/26 08:23:41;;;;;;;10.33;3.43;;;;;;;;;;5075218;28;20486;-60
2023/05/26 08:26:09;;;;;;;8.77;3.50;;;;;;;;;;5075240;28;20454;-60
2023/05/26 08:28:35;;;;;;;11.77;3.97;;;;;;;;;;5075035;28;20443;-60
2023/05/26 08:31:02;;;;;;;9.40;3.67;;;;;;;;;;5074964;28;20478;-60
2023/05/26 08:33:29;;;;;;;12.43;3.57;;;;;;;;;;5074705;28;20457;-60
2023/05/26 08:35:56;;;;;;;14.43;3.50;;;;;;;;;;5075075;28;20529;-60
2023/05/26 08:38:25;;;;;;;9.67;3.23;;;;;;;;;;5074972;28;20532;-60
2023/05/26 08:40:52;;;;;;;13.57;4.03;;;;;;;;;;5075019;28;20931;-60
2023/05/26 08:43:21;;;;;;;16.80;4.30;;;;;;;;;;5074723;28;20481;-60
2023/05/26 08:45:48;;;;;;;14.10;4.70;;;;;;;;;;5073851;28;20456;-60
2023/05/26 08:48:15;;;;;;;16.33;4.50;;;;;;;;;;5072156;28;20227;-59
2023/05/26 08:50:43;;;;;;;18.80;5.40;;;;;;;;;;5074065;28;20452;-58
2023/05/26 08:53:10;;;;;;;16.60;4.60;;;;;;;;;;5074346;28;20902;-59
2023/05/26 08:55:39;;;;;;;9.13;4.43;;;;;;;;;;5074381;28;20513;-59
2023/05/26 08:58:06;;;;;;;13.17;4.73;;;;;;;;;;5074229;28;20446;-58
2023/05/26 09:00:33;;;;;;;13.57;3.93;;;;;;;;;;5074357;28;20450;-59
2023/05/26 09:03:01;;;;;;;13.53;3.70;;;;;;;;;;5074483;28;20564;-60
2023/05/26 09:05:30;;;;;;;12.33;4.50;;;;;;;;;;5074316;28;20450;-59
2023/05/26 09:07:57;;;;;;;12.27;4.53;;;;;;;;;;5074397;28;20461;-58
2023/05/26 09:10:25;;;;;;;15.87;4.90;;;;;;;;;;5074273;28;20454;-59
2023/05/26 09:13:03;;;;;;;12.23;5.40;;;;;;;;;;5074051;28;20447;-58
2023/05/26 09:15:30;;;;;;;13.20;4.07;;;;;;;;;;5074060;28;20451;-58
2023/05/26 09:18:02;;;;;;;12.63;4.40;;;;;;;;;;5073986;28;20533;-60
2023/05/26 09:20:29;;;;;;;13.10;4.40;;;;;;;;;;5074081;28;20931;-60
2023/05/26 09:22:57;;;;;;;17.27;4.10;;;;;;;;;;5073963;28;20494;-60
2023/05/26 09:25:25;;;;;;;11.93;3.40;;;;;;;;;;5073983;28;20455;-60
2023/05/26 09:27:52;;;;;;;8.10;3.23;;;;;;;;;;5074034;28;20534;-60
2023/05/26 09:30:20;;;;;;;9.60;3.50;;;;;;;;;;5073839;28;20546;-60
2023/05/26 09:32:47;;;;;;;9.43;4.37;;;;;;;;;;5073752;28;20490;-59
2023/05/26 09:35:14;;;;;;;13.07;4.03;;;;;;;;;;5073782;28;20455;-59
2023/05/26 09:37:44;;;;;;;11.30;4.03;;;;;;;;;;5073614;28;20885;-60
2023/05/26 09:40:14;;;;;;;9.67;3.40;;;;;;;;;;5073602;28;20461;-58
2023/05/26 09:42:47;;;;;;;14.27;4.90;;;;;;;;;;5073896;28;20482;-59
2023/05/26 09:45:14;;;;;;;13.97;4.00;;;;;;;;;;5073001;28;20946;-59
2023/05/26 09:47:42;;;;;;;11.63;4.13;;;;;;;;;;5073721;28;20508;-59
2023/05/26 09:50:10;;;;;;;19.10;7.30;;;;;;;;;;5073580;28;20518;-60
2023/05/26 09:52:37;;;;;;;10.50;3.87;;;;;;;;;;5073386;28;20448;-60
2023/05/26 09:55:05;;;;;;;11.37;4.10;;;;;;;;;;5073376;28;20480;-61
2023/05/26 09:57:32;;;;;;;12.97;4.83;;;;;;;;;;5073335;28;20459;-61
2023/05/26 10:00:00;;;;;;;9.97;3.70;;;;;;;;;;5073480;28;20513;-60
2023/05/26 10:02:27;;;;;;;12.43;3.43;;;;;;;;;;5073299;28;20456;-57
2023/05/26 10:04:55;;;;;;;8.33;3.30;;;;;;;;;;5073322;28;20475;-59
2023/05/26 10:07:23;;;;;;;7.87;3.80;;;;;;;;;;5073389;28;20833;-58
2023/05/26 10:09:52;;;;;;;10.27;3.60;;;;;;;;;;5073333;28;20846;-59
2023/05/26 10:12:21;;;;;;;9.13;3.50;;;;;;;;;;5073233;28;20538;-58
2023/05/26 10:14:48;;;;;;;9.20;4.33;;;;;;;;;;5073137;28;20494;-58
2023/05/26 10:17:15;;;;;;;9.67;4.10;;;;;;;;;;5073030;28;20943;-58
2023/05/26 10:19:42;;;;;;;9.27;3.67;;;;;;;;;;5072989;28;20448;-58
2023/05/26 10:22:13;;;;;;;9.00;3.70;;;;;;;;;;5073343;28;20724;-58
2023/05/26 10:24:41;;;;;;;5.83;2.40;;;;;;;;;;5073107;28;20493;-58
2023/05/26 10:27:11;;;;;;;9.87;4.00;;;;;;;;;;5073039;28;20854;-59
2023/05/26 10:29:44;;;;;;;8.40;3.37;;;;;;;;;;5072832;28;20456;-58
2023/05/26 10:32:36;;;;;;;6.37;2.57;;;;;;;;;;5072804;28;20939;-58
2023/05/26 10:35:03;;;;;;;8.40;3.33;;;;;;;;;;5072863;28;20451;-59
2023/05/26 10:37:31;;;;;;;7.43;2.87;;;;;;;;;;5072978;28;20482;-59
2023/05/26 10:39:58;;;;;;;6.77;2.80;;;;;;;;;;5072864;28;20559;-59
2023/05/26 10:42:25;;;;;;;6.77;2.80;;;;;;;;;;5072791;28;20880;-60
2023/05/26 10:44:54;;;;;;;8.73;2.83;;;;;;;;;;5072554;28;20979;-59
2023/05/26 10:47:21;;;;;;;6.13;2.60;;;;;;;;;;5072912;28;20456;-59
2023/05/26 10:49:56;;;;;;;5.97;2.83;;;;;;;;;;5072744;28;20444;-60
2023/05/26 10:52:23;;;;;;;8.10;4.13;;;;;;;;;;5072774;28;20447;-60
2023/05/26 10:54:53;;;;;;;6.83;3.27;;;;;;;;;;5072355;28;20512;-59
2023/05/26 10:57:29;;;;;;;11.20;3.37;;;;;;;;;;5075400;28;20451;-60
2023/05/26 10:59:57;;;;;;;15.77;4.53;;;;;;;;;;5076848;28;20482;-59
2023/05/26 11:02:23;;;;;;;5.00;3.10;;;;;;;;;;5076900;28;20444;-59
2023/05/26 11:04:51;;;;;;;9.43;3.13;;;;;;;;;;5076734;28;20484;-59
2023/05/26 11:07:18;;;;;;;4.93;2.53;;;;;;;;;;5076742;28;20458;-60
2023/05/26 11:09:57;;;;;;;4.67;2.87;;;;;;;;;;5076478;28;20453;-60
2023/05/26 11:12:24;;;;;;;7.63;2.90;;;;;;;;;;5076787;28;20534;-60
2023/05/26 11:14:51;;;;;;;12.25;6.07;;;;;;;;;;5075403;28;20469;-59
2023/05/26 11:17:19;;;;;;;8.70;2.80;;;;;;;;;;5076567;28;20197;-60
2023/05/26 11:19:54;;;;;;;7.63;3.33;;;;;;;;;;5076296;28;20894;-60
2023/05/26 11:22:21;;;;;;;7.53;2.90;;;;;;;;;;5076228;28;20451;-60
2023/05/26 11:24:50;;;;;;;6.83;2.97;;;;;;;;;;5076376;28;20886;-60
2023/05/26 11:27:18;;;;;;;12.23;4.17;;;;;;;;;;5076484;28;20458;-60
2023/05/26 11:29:49;;;;;;;7.20;2.67;;;;;;;;;;5076250;28;20456;-60
2023/05/26 11:32:16;;;;;;;7.63;3.10;;;;;;;;;;5076300;28;20505;-59
2023/05/26 11:34:43;;;;;;;7.53;2.57;;;;;;;;;;5076110;28;20853;-60
2023/05/26 11:37:10;;;;;;;12.87;3.60;;;;;;;;;;5076050;28;20490;-59
2023/05/26 11:39:38;;;;;;;7.23;2.40;;;;;;;;;;5076235;28;20471;-60
2023/05/26 11:42:09;;;;;;;6.73;2.90;;;;;;;;;;5067149;28;20805;-59
2023/05/26 11:44:37;;;;;;;5.03;2.87;;;;;;;;;;5073742;28;20574;-62
2023/05/26 11:47:05;;;;;;;9.10;3.00;;;;;;;;;;5075897;28;20448;-60
2023/05/26 11:49:32;;;;;;;5.00;3.10;;;;;;;;;;5076064;28;20463;-60
2023/05/26 11:51:59;;;;;;;6.93;2.60;;;;;;;;;;5076012;28;20459;-60
2023/05/26 11:54:26;;;;;;;8.70;3.27;;;;;;;;;;5075747;28;20564;-60
2023/05/26 11:56:53;;;;;;;6.17;2.53;;;;;;;;;;5075525;28;20444;-60
2023/05/26 11:59:21;;;;;;;5.07;2.83;;;;;;;;;;5075624;28;20565;-60
2023/05/26 12:01:49;;;;;;;6.50;2.73;;;;;;;;;;5075516;28;20456;-60
2023/05/26 12:04:26;;;;;;;8.23;3.20;;;;;;;;;;5075592;28;20479;-60
2023/05/26 12:06:53;;;;;;;5.50;2.70;;;;;;;;;;5075490;28;20535;-60
2023/05/26 12:09:21;;;;;;;8.37;2.67;;;;;;;;;;5074521;28;20993;-60
2023/05/26 12:11:48;;;;;;;7.53;2.97;;;;;;;;;;5075596;28;20444;-60
2023/05/26 12:14:16;;;;;;;7.00;3.20;;;;;;;;;;5075555;28;20444;-60
2023/05/26 12:16:43;;;;;;;4.53;2.47;;;;;;;;;;5075618;28;20879;-60
2023/05/26 12:19:12;;;;;;;7.70;2.47;;;;;;;;;;5075558;28;20534;-60
2023/05/26 12:21:40;;;;;;;3.70;2.20;;;;;;;;;;5075418;28;20849;-60
2023/05/26 12:24:07;;;;;;;3.70;2.20;;;;;;;;;;5075367;28;20479;-60
2023/05/26 12:26:34;;;;;;;7.03;2.23;;;;;;;;;;5075753;28;20448;-61
2023/05/26 12:29:08;;;;;;;4.87;2.43;;;;;;;;;;5075264;28;20452;-60
2023/05/26 12:31:47;;;;;;;4.20;2.00;;;;;;;;;;5075631;28;20494;-63
2023/05/26 12:34:19;;;;;;;7.63;2.67;;;;;;;;;;5075499;28;20439;-60
2023/05/26 12:36:47;;;;;;;6.63;2.40;;;;;;;;;;5075198;28;20516;-60
2023/05/26 12:39:14;;;;;;;5.30;2.47;;;;;;;;;;5074935;28;20497;-60
2023/05/26 12:41:42;;;;;;;6.37;2.57;;;;;;;;;;5075234;28;20455;-60
2023/05/26 12:44:09;;;;;;;6.80;2.43;;;;;;;;;;5074966;28;20476;-60
2023/05/26 12:46:36;;;;;;;5.50;2.20;;;;;;;;;;5075032;28;21001;-60
2023/05/26 12:49:03;;;;;;;6.40;3.07;;;;;;;;;;5075035;28;20529;-60
2023/05/26 12:51:32;;;;;;;6.03;2.63;;;;;;;;;;5074932;28;20866;-60
2023/05/26 12:53:58;;;;;;;5.53;2.40;;;;;;;;;;5074467;28;20483;-60
2023/05/26 12:56:26;;;;;;;3.57;1.83;;;;;;;;;;5074917;28;20443;-60
2023/05/26 12:58:53;;;;;;;6.33;3.37;;;;;;;;;;5074854;28;20444;-60
2023/05/26 13:01:20;;;;;;;9.37;2.10;;;;;;;;;;5074703;28;20535;-60
2023/05/26 13:03:48;;;;;;;4.70;2.03;;;;;;;;;;5074846;28;20471;-60
2023/05/26 13:06:15;;;;;;;5.27;2.33;;;;;;;;;;5074556;28;20452;-59
2023/05/26 13:08:44;;;;;;;6.20;2.90;;;;;;;;;;5074721;28;20534;-59
2023/05/26 13:11:11;;;;;;;4.93;2.13;;;;;;;;;;5074532;28;20455;-60
2023/05/26 13:13:39;;;;;;;5.40;2.37;;;;;;;;;;5074475;28;20452;-60
2023/05/26 13:16:06;;;;;;;15.97;5.00;;;;;;;;;;5074395;28;20448;-60
2023/05/26 13:18:33;;;;;;;8.10;2.70;;;;;;;;;;5074179;28;20505;-60
2023/05/26 13:21:00;;;;;;;5.20;2.13;;;;;;;;;;5073127;28;20475;-60
2023/05/26 13:23:27;;;;;;;8.20;3.10;;;;;;;;;;5074259;28;20444;-60
2023/05/26 13:25:55;;;;;;;8.37;2.90;;;;;;;;;;5074062;28;20891;-59
2023/05/26 13:28:23;;;;;;;4.43;1.90;;;;;;;;;;5073955;28;20451;-59
2023/05/26 13:30:50;;;;;;;4.90;2.20;;;;;;;;;;5073865;28;20858;-60
2023/05/26 13:33:17;;;;;;;7.73;2.37;;;;;;;;;;5073924;28;20479;-61
2023/05/26 13:35:44;;;;;;;6.73;2.50;;;;;;;;;;5074489;28;20456;-61
2023/05/26 13:38:11;;;;;;;6.83;2.13;;;;;;;;;;5073871;28;20486;-60
2023/05/26 13:40:38;;;;;;;4.73;2.63;;;;;;;;;;5073631;28;20486;-60
2023/05/26 13:43:06;;;;;;;3.87;2.00;;;;;;;;;;5073703;28;20943;-61
2023/05/26 13:45:33;;;;;;;3.83;1.70;;;;;;;;;;5073682;28;20844;-60
2023/05/26 13:48:00;;;;;;;3.90;2.47;;;;;;;;;;5074052;28;20959;-60
2023/05/26 13:50:27;;;;;;;3.70;1.93;;;;;;;;;;5073828;28;20451;-61
2023/05/26 13:52:54;;;;;;;3.83;2.13;;;;;;;;;;5073799;28;20885;-61
2023/05/26 13:55:21;;;;;;;6.13;2.30;;;;;;;;;;5073349;28;20545;-61
2023/05/26 13:57:51;;;;;;;8.30;2.80;;;;;;;;;;5073541;28;20807;-61
2023/05/26 14:00:19;;;;;;;4.83;1.97;;;;;;;;;;5073552;28;20451;-60
2023/05/26 14:02:47;;;;;;;7.43;2.07;;;;;;;;;;5073412;28;20448;-60
2023/05/26 14:05:14;;;;;;;5.50;2.73;;;;;;;;;;5073560;28;20484;-60
2023/05/26 14:07:41;;;;;;;6.40;2.40;;;;;;;;;;5073335;28;20448;-60
2023/05/26 14:10:09;;;;;;;7.13;3.07;;;;;;;;;;5073385;28;21008;-60
2023/05/26 14:12:36;;;;;;;6.47;2.20;;;;;;;;;;5073327;28;20451;-60
2023/05/26 14:15:04;;;;;;;6.53;2.40;;;;;;;;;;5073329;28;20452;-60
2023/05/26 14:17:33;;;;;;;8.40;3.10;;;;;;;;;;5073195;28;20959;-59
2023/05/26 14:20:00;;;;;;;4.17;2.13;;;;;;;;;;5073269;28;20797;-61
2023/05/26 14:22:27;;;;;;;5.87;2.10;;;;;;;;;;5073230;28;20451;-60
2023/05/26 14:24:54;;;;;;;5.40;2.70;;;;;;;;;;5073212;28;20479;-60
2023/05/26 14:27:21;;;;;;;3.87;2.20;;;;;;;;;;5073107;28;20517;-60
2023/05/26 14:29:48;;;;;;;9.13;2.73;;;;;;;;;;5072935;28;20539;-60
2023/05/26 14:32:15;;;;;;;2.90;1.80;;;;;;;;;;5072724;28;20934;-61
2023/05/26 14:34:44;;;;;;;7.73;2.67;;;;;;;;;;5073112;28;20500;-60
2023/05/26 14:37:12;;;;;;;4.10;2.20;;;;;;;;;;5073105;28;20452;-61
2023/05/26 14:39:39;;;;;;;9.57;3.00;;;;;;;;;;5072971;28;20947;-60